sensor_id;sensor_type;location;lat;lon;timestamp;P1;durP1;ratioP1;P2;durP2;ratioP2
51515;SDS011;37603;55.614;37.326;2023-08-24T00:02:33;9.6;;;6.5;;
51515;SDS011;37603;55.614;37.326;2023-08-24T00:08:31;10.9;;;7.9;;
51515;SDS011;37603;55.614;37.326;2023-08-24T00:14:30;15.7;;;10.5;;
51515;SDS011;37603;55.614;37.326;2023-08-24T00:20:29;24.3;;;14.6;;
51515;SDS011;37603;55.614;37.326;2023-08-24T00:26:29;23.8;;;13.4;;
51515;SDS011;37603;55.614;37.326;2023-08-24T00:32:28;24.6;;;14.5;;
51515;SDS011;37603;55.614;37.326;2023-08-24T00:38:27;27.5;;;14.8;;
51515;SDS011;37603;55.614;37.326;2023-08-24T00:44:27;29.5;;;16.0;;
51515;SDS011;37603;55.614;37.326;2023-08-24T00:50:26;26.4;;;14.7;;
51515;SDS011;37603;55.614;37.326;2023-08-24T00:56:26;20.6;;;14.1;;
51515;SDS011;37603;55.614;37.326;2023-08-24T01:02:25;18.6;;;12.9;;
51515;SDS011;37603;55.614;37.326;2023-08-24T01:08:24;16.1;;;11.9;;
51515;SDS011;37603;55.614;37.326;2023-08-24T01:14:36;15.4;;;12.1;;
51515;SDS011;37603;55.614;37.326;2023-08-24T01:20:23;13.7;;;10.8;;
51515;SDS011;37603;55.614;37.326;2023-08-24T01:26:25;15.7;;;11.9;;
51515;SDS011;37603;55.614;37.326;2023-08-24T01:32:22;18.4;;;13.5;;
51515;SDS011;37603;55.614;37.326;2023-08-24T01:38:22;15.8;;;12.3;;
51515;SDS011;37603;55.614;37.326;2023-08-24T01:44:21;23.4;;;15.2;;
51515;SDS011;37603;55.614;37.326;2023-08-24T01:50:20;23.6;;;14.7;;
51515;SDS011;37603;55.614;37.326;2023-08-24T01:56:20;26.0;;;16.2;;
51515;SDS011;37603;55.614;37.326;2023-08-24T02:02:20;24.2;;;15.6;;
51515;SDS011;37603;55.614;37.326;2023-08-24T02:08:19;18.9;;;14.0;;
51515;SDS011;37603;55.614;37.326;2023-08-24T02:14:18;19.4;;;14.0;;
51515;SDS011;37603;55.614;37.326;2023-08-24T02:20:17;25.3;;;15.4;;
51515;SDS011;37603;55.614;37.326;2023-08-24T02:26:17;23.6;;;15.2;;
51515;SDS011;37603;55.614;37.326;2023-08-24T02:32:16;23.4;;;15.3;;
51515;SDS011;37603;55.614;37.326;2023-08-24T02:38:16;22.3;;;15.5;;
51515;SDS011;37603;55.614;37.326;2023-08-24T02:44:15;20.3;;;14.3;;
51515;SDS011;37603;55.614;37.326;2023-08-24T02:50:14;19.7;;;14.6;;
51515;SDS011;37603;55.614;37.326;2023-08-24T02:56:14;19.4;;;14.5;;
51515;SDS011;37603;55.614;37.326;2023-08-24T03:02:13;23.5;;;16.0;;
51515;SDS011;37603;55.614;37.326;2023-08-24T03:08:12;24.7;;;15.7;;
51515;SDS011;37603;55.614;37.326;2023-08-24T03:14:12;22.9;;;15.6;;
51515;SDS011;37603;55.614;37.326;2023-08-24T03:20:11;18.4;;;13.9;;
51515;SDS011;37603;55.614;37.326;2023-08-24T03:26:11;19.3;;;13.5;;
51515;SDS011;37603;55.614;37.326;2023-08-24T03:32:10;19.5;;;14.8;;
51515;SDS011;37603;55.614;37.326;2023-08-24T03:38:09;21.4;;;14.9;;
51515;SDS011;37603;55.614;37.326;2023-08-24T03:44:09;21.8;;;15.0;;
51515;SDS011;37603;55.614;37.326;2023-08-24T03:50:08;19.1;;;13.2;;
51515;SDS011;37603;55.614;37.326;2023-08-24T03:56:08;21.5;;;13.7;;
51515;SDS011;37603;55.614;37.326;2023-08-24T04:02:07;18.4;;;13.4;;
51515;SDS011;37603;55.614;37.326;2023-08-24T04:08:07;15.5;;;12.7;;
51515;SDS011;37603;55.614;37.326;2023-08-24T04:14:06;19.8;;;13.5;;
51515;SDS011;37603;55.614;37.326;2023-08-24T04:20:06;16.2;;;12.5;;
51515;SDS011;37603;55.614;37.326;2023-08-24T04:26:05;16.9;;;12.8;;
51515;SDS011;37603;55.614;37.326;2023-08-24T04:32:05;16.1;;;12.6;;
51515;SDS011;37603;55.614;37.326;2023-08-24T04:38:04;16.6;;;11.8;;
51515;SDS011;37603;55.614;37.326;2023-08-24T04:44:04;16.5;;;12.6;;
51515;SDS011;37603;55.614;37.326;2023-08-24T04:50:03;17.7;;;11.9;;
51515;SDS011;37603;55.614;37.326;2023-08-24T04:56:03;13.5;;;10.7;;
51515;SDS011;37603;55.614;37.326;2023-08-24T05:02:02;15.0;;;10.6;;
51515;SDS011;37603;55.614;37.326;2023-08-24T05:08:02;13.1;;;9.9;;
51515;SDS011;37603;55.614;37.326;2023-08-24T05:14:01;11.9;;;9.7;;
51515;SDS011;37603;55.614;37.326;2023-08-24T05:20:00;12.4;;;9.8;;
51515;SDS011;37603;55.614;37.326;2023-08-24T05:26:00;8.5;;;7.6;;
51515;SDS011;37603;55.614;37.326;2023-08-24T05:31:59;8.2;;;7.3;;
51515;SDS011;37603;55.614;37.326;2023-08-24T05:38:02;8.1;;;7.0;;
51515;SDS011;37603;55.614;37.326;2023-08-24T05:43:59;10.6;;;8.7;;
51515;SDS011;37603;55.614;37.326;2023-08-24T05:49:58;11.8;;;8.6;;
51515;SDS011;37603;55.614;37.326;2023-08-24T05:55:58;13.4;;;8.8;;
51515;SDS011;37603;55.614;37.326;2023-08-24T06:01:57;13.2;;;9.2;;
51515;SDS011;37603;55.614;37.326;2023-08-24T06:07:57;10.9;;;9.0;;
51515;SDS011;37603;55.614;37.326;2023-08-24T06:13:56;8.5;;;7.6;;
51515;SDS011;37603;55.614;37.326;2023-08-24T06:19:55;10.1;;;8.5;;
51515;SDS011;37603;55.614;37.326;2023-08-24T06:25:55;10.6;;;8.6;;
51515;SDS011;37603;55.614;37.326;2023-08-24T06:31:54;9.8;;;8.6;;
51515;SDS011;37603;55.614;37.326;2023-08-24T06:37:54;9.5;;;7.9;;
51515;SDS011;37603;55.614;37.326;2023-08-24T06:43:54;8.3;;;7.4;;
51515;SDS011;37603;55.614;37.326;2023-08-24T06:49:53;9.4;;;8.4;;
51515;SDS011;37603;55.614;37.326;2023-08-24T06:55:54;10.5;;;8.8;;
51515;SDS011;37603;55.614;37.326;2023-08-24T07:01:54;9.1;;;7.6;;
51515;SDS011;37603;55.614;37.326;2023-08-24T07:07:52;8.8;;;7.5;;
51515;SDS011;37603;55.614;37.326;2023-08-24T07:13:51;8.2;;;7.2;;
51515;SDS011;37603;55.614;37.326;2023-08-24T07:19:51;8.7;;;6.6;;
51515;SDS011;37603;55.614;37.326;2023-08-24T07:25:50;8.9;;;7.2;;
51515;SDS011;37603;55.614;37.326;2023-08-24T07:31:50;8.3;;;7.2;;
51515;SDS011;37603;55.614;37.326;2023-08-24T07:37:50;9.4;;;8.4;;
51515;SDS011;37603;55.614;37.326;2023-08-24T07:43:49;11.3;;;9.8;;
51515;SDS011;37603;55.614;37.326;2023-08-24T07:49:48;14.9;;;10.3;;
51515;SDS011;37603;55.614;37.326;2023-08-24T07:55:48;21.6;;;17.4;;
51515;SDS011;37603;55.614;37.326;2023-08-24T08:01:48;24.2;;;19.2;;
51515;SDS011;37603;55.614;37.326;2023-08-24T08:07:47;22.4;;;18.8;;
51515;SDS011;37603;55.614;37.326;2023-08-24T08:13:47;22.2;;;18.9;;
51515;SDS011;37603;55.614;37.326;2023-08-24T08:25:46;22.4;;;19.8;;
51515;SDS011;37603;55.614;37.326;2023-08-24T08:31:45;24.1;;;20.8;;
51515;SDS011;37603;55.614;37.326;2023-08-24T08:37:45;25.1;;;22.1;;
51515;SDS011;37603;55.614;37.326;2023-08-24T08:43:44;26.9;;;22.3;;
51515;SDS011;37603;55.614;37.326;2023-08-24T08:49:44;22.8;;;20.3;;
51515;SDS011;37603;55.614;37.326;2023-08-24T08:55:43;20.9;;;18.6;;
51515;SDS011;37603;55.614;37.326;2023-08-24T09:01:42;21.9;;;18.7;;
51515;SDS011;37603;55.614;37.326;2023-08-24T09:07:42;20.6;;;18.5;;
51515;SDS011;37603;55.614;37.326;2023-08-24T09:13:42;24.9;;;21.6;;
51515;SDS011;37603;55.614;37.326;2023-08-24T09:19:41;22.7;;;19.1;;
51515;SDS011;37603;55.614;37.326;2023-08-24T09:25:44;24.2;;;21.1;;
51515;SDS011;37603;55.614;37.326;2023-08-24T09:31:40;25.2;;;21.7;;
51515;SDS011;37603;55.614;37.326;2023-08-24T09:37:39;27.7;;;22.3;;
51515;SDS011;37603;55.614;37.326;2023-08-24T09:43:39;25.1;;;21.7;;
51515;SDS011;37603;55.614;37.326;2023-08-24T09:49:38;25.3;;;21.8;;
51515;SDS011;37603;55.614;37.326;2023-08-24T09:55:38;23.6;;;21.1;;
51515;SDS011;37603;55.614;37.326;2023-08-24T10:01:38;24.2;;;20.5;;
51515;SDS011;37603;55.614;37.326;2023-08-24T10:07:37;25.7;;;22.2;;
51515;SDS011;37603;55.614;37.326;2023-08-24T10:13:40;24.7;;;22.1;;
51515;SDS011;37603;55.614;37.326;2023-08-24T10:19:36;27.4;;;22.3;;
51515;SDS011;37603;55.614;37.326;2023-08-24T10:25:35;27.6;;;23.5;;
51515;SDS011;37603;55.614;37.326;2023-08-24T10:31:35;28.2;;;22.3;;
51515;SDS011;37603;55.614;37.326;2023-08-24T10:37:34;27.1;;;22.6;;
51515;SDS011;37603;55.614;37.326;2023-08-24T10:43:34;25.9;;;22.9;;
51515;SDS011;37603;55.614;37.326;2023-08-24T10:49:33;31.1;;;23.7;;
51515;SDS011;37603;55.614;37.326;2023-08-24T10:55:33;26.1;;;23.3;;
51515;SDS011;37603;55.614;37.326;2023-08-24T11:01:32;25.0;;;22.3;;
51515;SDS011;37603;55.614;37.326;2023-08-24T11:07:32;25.1;;;21.7;;
51515;SDS011;37603;55.614;37.326;2023-08-24T11:13:31;23.0;;;20.5;;
51515;SDS011;37603;55.614;37.326;2023-08-24T11:19:31;22.0;;;18.7;;
51515;SDS011;37603;55.614;37.326;2023-08-24T11:25:30;26.4;;;22.9;;
51515;SDS011;37603;55.614;37.326;2023-08-24T11:31:30;24.9;;;21.4;;
51515;SDS011;37603;55.614;37.326;2023-08-24T11:37:30;22.9;;;20.4;;
51515;SDS011;37603;55.614;37.326;2023-08-24T11:43:29;24.1;;;20.7;;
51515;SDS011;37603;55.614;37.326;2023-08-24T11:49:29;23.3;;;20.8;;
51515;SDS011;37603;55.614;37.326;2023-08-24T11:55:28;26.9;;;22.7;;
51515;SDS011;37603;55.614;37.326;2023-08-24T12:01:28;24.7;;;21.2;;
51515;SDS011;37603;55.614;37.326;2023-08-24T12:07:29;22.7;;;19.7;;
51515;SDS011;37603;55.614;37.326;2023-08-24T12:13:27;18.3;;;14.9;;
51515;SDS011;37603;55.614;37.326;2023-08-24T12:19:26;13.8;;;9.0;;
51515;SDS011;37603;55.614;37.326;2023-08-24T12:25:26;12.4;;;9.8;;
51515;SDS011;37603;55.614;37.326;2023-08-24T12:31:26;11.2;;;8.1;;
51515;SDS011;37603;55.614;37.326;2023-08-24T12:37:25;8.2;;;6.4;;
51515;SDS011;37603;55.614;37.326;2023-08-24T12:43:24;9.8;;;7.2;;
51515;SDS011;37603;55.614;37.326;2023-08-24T12:49:24;8.1;;;6.3;;
51515;SDS011;37603;55.614;37.326;2023-08-24T12:55:23;8.0;;;5.5;;
51515;SDS011;37603;55.614;37.326;2023-08-24T13:01:23;8.4;;;6.2;;
51515;SDS011;37603;55.614;37.326;2023-08-24T13:07:23;9.9;;;6.3;;
51515;SDS011;37603;55.614;37.326;2023-08-24T13:13:22;8.1;;;5.4;;
51515;SDS011;37603;55.614;37.326;2023-08-24T13:19:22;6.6;;;4.8;;
51515;SDS011;37603;55.614;37.326;2023-08-24T13:25:21;8.6;;;4.8;;
51515;SDS011;37603;55.614;37.326;2023-08-24T13:31:21;5.1;;;4.2;;
51515;SDS011;37603;55.614;37.326;2023-08-24T13:37:20;6.5;;;4.4;;
51515;SDS011;37603;55.614;37.326;2023-08-24T13:43:20;5.2;;;4.2;;
51515;SDS011;37603;55.614;37.326;2023-08-24T13:49:19;7.4;;;4.9;;
51515;SDS011;37603;55.614;37.326;2023-08-24T13:55:19;6.3;;;4.4;;
51515;SDS011;37603;55.614;37.326;2023-08-24T14:01:20;9.9;;;4.6;;
51515;SDS011;37603;55.614;37.326;2023-08-24T14:07:18;9.4;;;4.6;;
51515;SDS011;37603;55.614;37.326;2023-08-24T14:13:17;8.0;;;5.2;;
51515;SDS011;37603;55.614;37.326;2023-08-24T14:19:17;9.0;;;4.4;;
51515;SDS011;37603;55.614;37.326;2023-08-24T14:25:17;6.9;;;4.6;;
51515;SDS011;37603;55.614;37.326;2023-08-24T14:31:16;8.4;;;4.4;;
51515;SDS011;37603;55.614;37.326;2023-08-24T14:37:16;9.1;;;4.3;;
51515;SDS011;37603;55.614;37.326;2023-08-24T14:43:15;6.6;;;3.5;;
51515;SDS011;37603;55.614;37.326;2023-08-24T14:49:15;9.3;;;3.2;;
51515;SDS011;37603;55.614;37.326;2023-08-24T14:55:14;7.6;;;3.6;;
51515;SDS011;37603;55.614;37.326;2023-08-24T15:01:14;5.5;;;3.1;;
51515;SDS011;37603;55.614;37.326;2023-08-24T15:07:13;6.1;;;2.7;;
51515;SDS011;37603;55.614;37.326;2023-08-24T15:13:13;4.0;;;2.7;;
51515;SDS011;37603;55.614;37.326;2023-08-24T15:19:12;6.5;;;2.9;;
51515;SDS011;37603;55.614;37.326;2023-08-24T15:25:12;6.6;;;3.9;;
51515;SDS011;37603;55.614;37.326;2023-08-24T15:31:12;7.0;;;3.2;;
51515;SDS011;37603;55.614;37.326;2023-08-24T15:37:11;8.2;;;3.4;;
51515;SDS011;37603;55.614;37.326;2023-08-24T15:43:11;5.7;;;2.8;;
51515;SDS011;37603;55.614;37.326;2023-08-24T15:49:10;7.1;;;3.6;;
51515;SDS011;37603;55.614;37.326;2023-08-24T15:55:10;8.6;;;3.7;;
51515;SDS011;37603;55.614;37.326;2023-08-24T16:01:09;7.9;;;3.4;;
51515;SDS011;37603;55.614;37.326;2023-08-24T16:07:09;7.6;;;3.5;;
51515;SDS011;37603;55.614;37.326;2023-08-24T16:13:08;8.2;;;3.8;;
51515;SDS011;37603;55.614;37.326;2023-08-24T16:19:08;5.6;;;3.6;;
51515;SDS011;37603;55.614;37.326;2023-08-24T16:25:07;8.2;;;3.9;;
51515;SDS011;37603;55.614;37.326;2023-08-24T16:31:06;10.2;;;4.3;;
51515;SDS011;37603;55.614;37.326;2023-08-24T16:37:06;8.7;;;4.7;;
51515;SDS011;37603;55.614;37.326;2023-08-24T16:43:05;8.3;;;5.0;;
51515;SDS011;37603;55.614;37.326;2023-08-24T16:49:05;9.1;;;5.2;;
51515;SDS011;37603;55.614;37.326;2023-08-24T16:55:04;8.7;;;4.8;;
51515;SDS011;37603;55.614;37.326;2023-08-24T17:01:04;10.4;;;4.4;;
51515;SDS011;37603;55.614;37.326;2023-08-24T17:07:03;8.0;;;4.6;;
51515;SDS011;37603;55.614;37.326;2023-08-24T17:13:03;6.4;;;4.4;;
51515;SDS011;37603;55.614;37.326;2023-08-24T17:19:02;8.1;;;4.5;;
51515;SDS011;37603;55.614;37.326;2023-08-24T17:25:01;6.8;;;4.3;;
51515;SDS011;37603;55.614;37.326;2023-08-24T17:31:01;9.5;;;5.9;;
51515;SDS011;37603;55.614;37.326;2023-08-24T17:37:00;11.7;;;6.9;;
51515;SDS011;37603;55.614;37.326;2023-08-24T17:43:00;9.8;;;6.1;;
51515;SDS011;37603;55.614;37.326;2023-08-24T17:48:59;10.5;;;6.6;;
51515;SDS011;37603;55.614;37.326;2023-08-24T17:54:58;12.1;;;7.2;;
51515;SDS011;37603;55.614;37.326;2023-08-24T18:00:58;12.0;;;5.9;;
51515;SDS011;37603;55.614;37.326;2023-08-24T18:07:01;11.4;;;5.5;;
51515;SDS011;37603;55.614;37.326;2023-08-24T18:12:57;11.2;;;5.3;;
51515;SDS011;37603;55.614;37.326;2023-08-24T18:18:56;12.2;;;6.9;;
51515;SDS011;37603;55.614;37.326;2023-08-24T18:24:56;11.4;;;6.8;;
51515;SDS011;37603;55.614;37.326;2023-08-24T18:30:56;10.4;;;7.3;;
51515;SDS011;37603;55.614;37.326;2023-08-24T18:36:54;11.1;;;6.8;;
51515;SDS011;37603;55.614;37.326;2023-08-24T18:42:54;10.3;;;7.5;;
51515;SDS011;37603;55.614;37.326;2023-08-24T18:48:53;9.8;;;6.8;;
51515;SDS011;37603;55.614;37.326;2023-08-24T18:54:53;12.7;;;8.2;;
51515;SDS011;37603;55.614;37.326;2023-08-24T19:00:52;10.2;;;7.2;;
51515;SDS011;37603;55.614;37.326;2023-08-24T19:06:51;13.5;;;7.0;;
51515;SDS011;37603;55.614;37.326;2023-08-24T19:12:51;9.3;;;6.1;;
51515;SDS011;37603;55.614;37.326;2023-08-24T19:18:50;10.1;;;6.0;;
51515;SDS011;37603;55.614;37.326;2023-08-24T19:24:50;12.9;;;7.2;;
51515;SDS011;37603;55.614;37.326;2023-08-24T19:30:52;12.1;;;7.5;;
51515;SDS011;37603;55.614;37.326;2023-08-24T19:36:48;12.0;;;6.7;;
51515;SDS011;37603;55.614;37.326;2023-08-24T19:42:48;10.4;;;5.9;;
51515;SDS011;37603;55.614;37.326;2023-08-24T19:54:47;9.1;;;5.7;;
51515;SDS011;37603;55.614;37.326;2023-08-24T20:00:46;10.7;;;6.3;;
51515;SDS011;37603;55.614;37.326;2023-08-24T20:06:45;12.5;;;6.8;;
51515;SDS011;37603;55.614;37.326;2023-08-24T20:12:44;11.8;;;6.7;;
51515;SDS011;37603;55.614;37.326;2023-08-24T20:18:44;12.3;;;6.4;;
51515;SDS011;37603;55.614;37.326;2023-08-24T20:24:43;8.7;;;5.5;;
51515;SDS011;37603;55.614;37.326;2023-08-24T20:30:42;12.8;;;6.3;;
51515;SDS011;37603;55.614;37.326;2023-08-24T20:36:42;10.7;;;6.3;;
51515;SDS011;37603;55.614;37.326;2023-08-24T20:42:41;12.3;;;7.9;;
51515;SDS011;37603;55.614;37.326;2023-08-24T20:48:40;15.0;;;8.2;;
51515;SDS011;37603;55.614;37.326;2023-08-24T20:54:40;18.1;;;10.8;;
51515;SDS011;37603;55.614;37.326;2023-08-24T21:00:39;14.1;;;10.5;;
51515;SDS011;37603;55.614;37.326;2023-08-24T21:06:38;15.3;;;9.7;;
51515;SDS011;37603;55.614;37.326;2023-08-24T21:12:37;14.6;;;10.1;;
51515;SDS011;37603;55.614;37.326;2023-08-24T21:18:37;14.0;;;8.5;;
51515;SDS011;37603;55.614;37.326;2023-08-24T21:24:36;13.9;;;9.4;;
51515;SDS011;37603;55.614;37.326;2023-08-24T21:30:35;12.9;;;8.9;;
51515;SDS011;37603;55.614;37.326;2023-08-24T21:36:34;13.6;;;9.8;;
51515;SDS011;37603;55.614;37.326;2023-08-24T21:42:34;12.8;;;8.9;;
51515;SDS011;37603;55.614;37.326;2023-08-24T21:48:33;13.2;;;8.6;;
51515;SDS011;37603;55.614;37.326;2023-08-24T21:54:32;11.2;;;8.2;;
51515;SDS011;37603;55.614;37.326;2023-08-24T22:00:31;12.6;;;9.2;;
51515;SDS011;37603;55.614;37.326;2023-08-24T22:06:31;15.2;;;9.1;;
51515;SDS011;37603;55.614;37.326;2023-08-24T22:12:30;15.6;;;10.1;;
51515;SDS011;37603;55.614;37.326;2023-08-24T22:18:29;14.6;;;9.5;;
51515;SDS011;37603;55.614;37.326;2023-08-24T22:24:28;12.3;;;8.7;;
51515;SDS011;37603;55.614;37.326;2023-08-24T22:30:28;15.0;;;9.2;;
51515;SDS011;37603;55.614;37.326;2023-08-24T22:36:27;13.0;;;9.0;;
51515;SDS011;37603;55.614;37.326;2023-08-24T22:42:26;12.8;;;8.9;;
51515;SDS011;37603;55.614;37.326;2023-08-24T22:48:28;12.7;;;9.9;;
51515;SDS011;37603;55.614;37.326;2023-08-24T22:54:24;14.5;;;10.3;;
51515;SDS011;37603;55.614;37.326;2023-08-24T23:00:24;15.7;;;11.7;;
51515;SDS011;37603;55.614;37.326;2023-08-24T23:06:27;15.3;;;10.9;;
51515;SDS011;37603;55.614;37.326;2023-08-24T23:12:22;16.2;;;11.2;;
51515;SDS011;37603;55.614;37.326;2023-08-24T23:18:21;17.2;;;11.8;;
51515;SDS011;37603;55.614;37.326;2023-08-24T23:24:20;17.9;;;11.1;;
51515;SDS011;37603;55.614;37.326;2023-08-24T23:30:20;12.0;;;9.6;;
51515;SDS011;37603;55.614;37.326;2023-08-24T23:36:19;14.9;;;12.1;;
51515;SDS011;37603;55.614;37.326;2023-08-24T23:42:18;19.9;;;13.6;;
51515;SDS011;37603;55.614;37.326;2023-08-24T23:48:17;16.0;;;11.5;;
51515;SDS011;37603;55.614;37.326;2023-08-24T23:54:16;16.5;;;11.6;;
